sensor_id;sensor_type;location;lat;lon;timestamp;P1;durP1;ratioP1;P2;durP2;ratioP2
41705;SDS011;27385;51.096;17.190;2022-09-16T00:02:19;6.00;;;0.90;;
41705;SDS011;27385;51.096;17.190;2022-09-16T00:04:50;4.80;;;0.80;;
41705;SDS011;27385;51.096;17.190;2022-09-16T00:07:22;3.90;;;0.80;;
41705;SDS011;27385;51.096;17.190;2022-09-16T00:09:53;3.60;;;0.70;;
41705;SDS011;27385;51.096;17.190;2022-09-16T00:12:24;3.30;;;0.80;;
41705;SDS011;27385;51.096;17.190;2022-09-16T00:14:56;6.00;;;0.80;;
41705;SDS011;27385;51.096;17.190;2022-09-16T00:17:27;4.40;;;0.80;;
41705;SDS011;27385;51.096;17.190;2022-09-16T00:19:59;6.50;;;1.30;;
41705;SDS011;27385;51.096;17.190;2022-09-16T00:22:31;5.70;;;1.00;;
41705;SDS011;27385;51.096;17.190;2022-09-16T00:25:03;5.10;;;0.90;;
41705;SDS011;27385;51.096;17.190;2022-09-16T00:27:36;3.20;;;0.70;;
41705;SDS011;27385;51.096;17.190;2022-09-16T00:30:09;4.60;;;0.80;;
41705;SDS011;27385;51.096;17.190;2022-09-16T00:32:40;9.70;;;0.80;;
41705;SDS011;27385;51.096;17.190;2022-09-16T00:35:14;2.90;;;0.60;;
41705;SDS011;27385;51.096;17.190;2022-09-16T00:37:46;5.90;;;0.70;;
41705;SDS011;27385;51.096;17.190;2022-09-16T00:40:17;4.80;;;0.70;;
41705;SDS011;27385;51.096;17.190;2022-09-16T00:42:49;7.30;;;0.90;;
41705;SDS011;27385;51.096;17.190;2022-09-16T00:45:21;3.30;;;0.70;;
41705;SDS011;27385;51.096;17.190;2022-09-16T00:47:56;5.80;;;0.90;;
41705;SDS011;27385;51.096;17.190;2022-09-16T00:50:31;8.60;;;0.70;;
41705;SDS011;27385;51.096;17.190;2022-09-16T00:53:08;5.20;;;0.70;;
41705;SDS011;27385;51.096;17.190;2022-09-16T00:55:44;8.00;;;0.80;;
41705;SDS011;27385;51.096;17.190;2022-09-16T00:58:17;4.90;;;1.30;;
41705;SDS011;27385;51.096;17.190;2022-09-16T01:00:53;5.90;;;0.90;;
41705;SDS011;27385;51.096;17.190;2022-09-16T01:03:26;4.60;;;0.90;;
41705;SDS011;27385;51.096;17.190;2022-09-16T01:05:59;6.40;;;0.70;;
41705;SDS011;27385;51.096;17.190;2022-09-16T01:08:31;4.90;;;0.80;;
41705;SDS011;27385;51.096;17.190;2022-09-16T01:11:02;6.10;;;0.70;;
41705;SDS011;27385;51.096;17.190;2022-09-16T01:13:34;6.20;;;0.80;;
41705;SDS011;27385;51.096;17.190;2022-09-16T01:16:07;2.00;;;0.60;;
41705;SDS011;27385;51.096;17.190;2022-09-16T01:18:45;4.20;;;0.50;;
41705;SDS011;27385;51.096;17.190;2022-09-16T01:21:33;5.50;;;0.60;;
41705;SDS011;27385;51.096;17.190;2022-09-16T01:24:25;3.80;;;0.50;;
41705;SDS011;27385;51.096;17.190;2022-09-16T01:27:24;5.00;;;0.60;;
41705;SDS011;27385;51.096;17.190;2022-09-16T01:30:14;5.00;;;0.60;;
41705;SDS011;27385;51.096;17.190;2022-09-16T01:33:00;3.10;;;0.40;;
41705;SDS011;27385;51.096;17.190;2022-09-16T01:35:40;7.70;;;0.60;;
41705;SDS011;27385;51.096;17.190;2022-09-16T01:38:24;4.70;;;0.60;;
41705;SDS011;27385;51.096;17.190;2022-09-16T01:41:04;3.80;;;0.80;;
41705;SDS011;27385;51.096;17.190;2022-09-16T01:43:45;5.00;;;0.60;;
41705;SDS011;27385;51.096;17.190;2022-09-16T01:46:26;4.90;;;0.60;;
41705;SDS011;27385;51.096;17.190;2022-09-16T01:49:08;8.80;;;0.70;;
41705;SDS011;27385;51.096;17.190;2022-09-16T01:51:47;6.40;;;0.70;;
41705;SDS011;27385;51.096;17.190;2022-09-16T01:54:28;8.40;;;0.50;;
41705;SDS011;27385;51.096;17.190;2022-09-16T01:57:06;7.30;;;0.80;;
41705;SDS011;27385;51.096;17.190;2022-09-16T01:59:43;7.90;;;0.70;;
41705;SDS011;27385;51.096;17.190;2022-09-16T02:02:18;8.20;;;0.70;;
41705;SDS011;27385;51.096;17.190;2022-09-16T02:04:54;4.70;;;0.50;;
41705;SDS011;27385;51.096;17.190;2022-09-16T02:07:30;3.40;;;0.60;;
41705;SDS011;27385;51.096;17.190;2022-09-16T02:10:07;3.90;;;0.60;;
41705;SDS011;27385;51.096;17.190;2022-09-16T02:12:43;6.30;;;0.50;;
41705;SDS011;27385;51.096;17.190;2022-09-16T02:15:19;7.70;;;0.70;;
41705;SDS011;27385;51.096;17.190;2022-09-16T02:17:55;5.10;;;0.70;;
41705;SDS011;27385;51.096;17.190;2022-09-16T02:20:30;8.00;;;0.60;;
41705;SDS011;27385;51.096;17.190;2022-09-16T02:23:07;3.30;;;0.60;;
41705;SDS011;27385;51.096;17.190;2022-09-16T02:25:42;2.60;;;0.50;;
41705;SDS011;27385;51.096;17.190;2022-09-16T02:28:18;12.60;;;0.80;;
41705;SDS011;27385;51.096;17.190;2022-09-16T02:30:53;4.80;;;0.60;;
41705;SDS011;27385;51.096;17.190;2022-09-16T02:33:29;3.30;;;0.70;;
41705;SDS011;27385;51.096;17.190;2022-09-16T02:36:03;2.80;;;0.70;;
41705;SDS011;27385;51.096;17.190;2022-09-16T02:38:39;4.70;;;0.80;;
41705;SDS011;27385;51.096;17.190;2022-09-16T02:41:15;4.90;;;0.70;;
41705;SDS011;27385;51.096;17.190;2022-09-16T02:43:47;5.70;;;0.60;;
41705;SDS011;27385;51.096;17.190;2022-09-16T02:46:24;4.50;;;0.60;;
41705;SDS011;27385;51.096;17.190;2022-09-16T02:49:03;5.70;;;0.50;;
41705;SDS011;27385;51.096;17.190;2022-09-16T02:51:45;6.10;;;1.10;;
41705;SDS011;27385;51.096;17.190;2022-09-16T02:54:30;5.90;;;0.60;;
41705;SDS011;27385;51.096;17.190;2022-09-16T02:57:05;5.50;;;0.80;;
41705;SDS011;27385;51.096;17.190;2022-09-16T02:59:37;3.70;;;0.60;;
41705;SDS011;27385;51.096;17.190;2022-09-16T03:02:10;4.70;;;0.40;;
41705;SDS011;27385;51.096;17.190;2022-09-16T03:04:41;4.00;;;0.90;;
41705;SDS011;27385;51.096;17.190;2022-09-16T03:07:13;2.80;;;0.40;;
41705;SDS011;27385;51.096;17.190;2022-09-16T03:09:45;10.10;;;0.50;;
41705;SDS011;27385;51.096;17.190;2022-09-16T03:12:22;3.70;;;0.40;;
41705;SDS011;27385;51.096;17.190;2022-09-16T03:15:16;2.10;;;0.30;;
41705;SDS011;27385;51.096;17.190;2022-09-16T03:18:05;4.80;;;0.50;;
41705;SDS011;27385;51.096;17.190;2022-09-16T03:20:57;3.10;;;0.30;;
41705;SDS011;27385;51.096;17.190;2022-09-16T03:23:38;5.30;;;0.60;;
41705;SDS011;27385;51.096;17.190;2022-09-16T03:26:20;4.70;;;0.50;;
41705;SDS011;27385;51.096;17.190;2022-09-16T03:29:03;3.70;;;0.50;;
41705;SDS011;27385;51.096;17.190;2022-09-16T03:31:45;3.40;;;0.40;;
41705;SDS011;27385;51.096;17.190;2022-09-16T03:34:24;3.60;;;0.30;;
41705;SDS011;27385;51.096;17.190;2022-09-16T03:37:01;2.40;;;0.40;;
41705;SDS011;27385;51.096;17.190;2022-09-16T03:39:35;4.20;;;0.40;;
41705;SDS011;27385;51.096;17.190;2022-09-16T03:42:08;3.20;;;0.40;;
41705;SDS011;27385;51.096;17.190;2022-09-16T03:44:40;7.00;;;0.50;;
41705;SDS011;27385;51.096;17.190;2022-09-16T03:47:11;1.80;;;0.40;;
41705;SDS011;27385;51.096;17.190;2022-09-16T03:49:43;3.40;;;0.40;;
41705;SDS011;27385;51.096;17.190;2022-09-16T03:52:15;4.30;;;0.40;;
41705;SDS011;27385;51.096;17.190;2022-09-16T03:54:46;4.30;;;0.50;;
41705;SDS011;27385;51.096;17.190;2022-09-16T03:57:18;6.20;;;0.40;;
41705;SDS011;27385;51.096;17.190;2022-09-16T03:59:50;5.40;;;0.40;;
41705;SDS011;27385;51.096;17.190;2022-09-16T04:02:22;1.90;;;0.30;;
41705;SDS011;27385;51.096;17.190;2022-09-16T04:04:53;3.30;;;0.80;;
41705;SDS011;27385;51.096;17.190;2022-09-16T04:07:25;2.60;;;0.40;;
41705;SDS011;27385;51.096;17.190;2022-09-16T04:09:59;4.30;;;0.60;;
41705;SDS011;27385;51.096;17.190;2022-09-16T04:12:30;2.40;;;0.40;;
41705;SDS011;27385;51.096;17.190;2022-09-16T04:15:02;4.20;;;0.50;;
41705;SDS011;27385;51.096;17.190;2022-09-16T04:17:35;3.00;;;0.60;;
41705;SDS011;27385;51.096;17.190;2022-09-16T04:20:07;3.20;;;0.50;;
41705;SDS011;27385;51.096;17.190;2022-09-16T04:22:39;8.70;;;1.10;;
41705;SDS011;27385;51.096;17.190;2022-09-16T04:25:10;4.30;;;0.50;;
41705;SDS011;27385;51.096;17.190;2022-09-16T04:27:42;7.00;;;0.70;;
41705;SDS011;27385;51.096;17.190;2022-09-16T04:30:13;5.60;;;1.30;;
41705;SDS011;27385;51.096;17.190;2022-09-16T04:32:45;6.70;;;0.70;;
41705;SDS011;27385;51.096;17.190;2022-09-16T04:35:20;3.80;;;0.70;;
41705;SDS011;27385;51.096;17.190;2022-09-16T04:37:52;4.40;;;0.50;;
41705;SDS011;27385;51.096;17.190;2022-09-16T04:40:24;4.40;;;0.90;;
41705;SDS011;27385;51.096;17.190;2022-09-16T04:42:58;5.40;;;0.60;;
41705;SDS011;27385;51.096;17.190;2022-09-16T04:45:29;4.40;;;0.60;;
41705;SDS011;27385;51.096;17.190;2022-09-16T04:48:01;4.80;;;0.50;;
41705;SDS011;27385;51.096;17.190;2022-09-16T04:50:32;7.10;;;0.60;;
41705;SDS011;27385;51.096;17.190;2022-09-16T04:53:04;4.70;;;0.70;;
41705;SDS011;27385;51.096;17.190;2022-09-16T04:55:35;4.00;;;0.80;;
41705;SDS011;27385;51.096;17.190;2022-09-16T04:58:08;5.40;;;0.70;;
41705;SDS011;27385;51.096;17.190;2022-09-16T05:00:40;4.70;;;0.70;;
41705;SDS011;27385;51.096;17.190;2022-09-16T05:03:12;3.20;;;0.60;;
41705;SDS011;27385;51.096;17.190;2022-09-16T05:05:45;4.40;;;0.60;;
41705;SDS011;27385;51.096;17.190;2022-09-16T05:08:17;3.10;;;0.50;;
41705;SDS011;27385;51.096;17.190;2022-09-16T05:10:49;2.80;;;0.30;;
41705;SDS011;27385;51.096;17.190;2022-09-16T05:13:20;5.30;;;0.50;;
41705;SDS011;27385;51.096;17.190;2022-09-16T05:15:53;3.00;;;1.30;;
41705;SDS011;27385;51.096;17.190;2022-09-16T05:18:24;2.80;;;0.40;;
41705;SDS011;27385;51.096;17.190;2022-09-16T05:20:57;2.90;;;0.30;;
41705;SDS011;27385;51.096;17.190;2022-09-16T05:23:30;2.90;;;0.50;;
41705;SDS011;27385;51.096;17.190;2022-09-16T05:26:03;6.80;;;0.70;;
41705;SDS011;27385;51.096;17.190;2022-09-16T05:28:38;3.00;;;0.60;;
41705;SDS011;27385;51.096;17.190;2022-09-16T05:31:11;6.00;;;0.50;;
41705;SDS011;27385;51.096;17.190;2022-09-16T05:33:45;2.70;;;0.40;;
41705;SDS011;27385;51.096;17.190;2022-09-16T05:36:22;4.60;;;0.50;;
41705;SDS011;27385;51.096;17.190;2022-09-16T05:38:55;4.00;;;0.50;;
41705;SDS011;27385;51.096;17.190;2022-09-16T05:41:27;4.30;;;0.80;;
41705;SDS011;27385;51.096;17.190;2022-09-16T05:44:02;2.60;;;0.50;;
41705;SDS011;27385;51.096;17.190;2022-09-16T05:46:34;2.20;;;0.60;;
41705;SDS011;27385;51.096;17.190;2022-09-16T05:49:08;7.20;;;0.70;;
41705;SDS011;27385;51.096;17.190;2022-09-16T05:51:40;7.50;;;0.70;;
41705;SDS011;27385;51.096;17.190;2022-09-16T05:54:11;4.10;;;0.70;;
41705;SDS011;27385;51.096;17.190;2022-09-16T05:56:45;9.50;;;1.00;;
41705;SDS011;27385;51.096;17.190;2022-09-16T05:59:18;6.80;;;0.90;;
41705;SDS011;27385;51.096;17.190;2022-09-16T06:01:51;5.40;;;0.90;;
41705;SDS011;27385;51.096;17.190;2022-09-16T06:04:22;5.20;;;0.70;;
41705;SDS011;27385;51.096;17.190;2022-09-16T06:06:54;7.60;;;1.00;;
41705;SDS011;27385;51.096;17.190;2022-09-16T06:09:28;3.50;;;0.70;;
41705;SDS011;27385;51.096;17.190;2022-09-16T06:11:59;6.00;;;0.80;;
41705;SDS011;27385;51.096;17.190;2022-09-16T06:14:31;3.50;;;0.70;;
41705;SDS011;27385;51.096;17.190;2022-09-16T06:17:02;4.90;;;0.90;;
41705;SDS011;27385;51.096;17.190;2022-09-16T06:19:34;5.10;;;0.80;;
41705;SDS011;27385;51.096;17.190;2022-09-16T06:22:05;7.00;;;0.90;;
41705;SDS011;27385;51.096;17.190;2022-09-16T06:24:37;5.20;;;0.90;;
41705;SDS011;27385;51.096;17.190;2022-09-16T06:27:08;4.20;;;0.80;;
41705;SDS011;27385;51.096;17.190;2022-09-16T06:29:40;7.60;;;0.80;;
41705;SDS011;27385;51.096;17.190;2022-09-16T06:32:12;6.80;;;0.80;;
41705;SDS011;27385;51.096;17.190;2022-09-16T06:34:43;3.70;;;0.90;;
41705;SDS011;27385;51.096;17.190;2022-09-16T06:37:15;5.70;;;1.00;;
41705;SDS011;27385;51.096;17.190;2022-09-16T06:39:46;12.80;;;1.10;;
41705;SDS011;27385;51.096;17.190;2022-09-16T06:42:17;4.80;;;1.10;;
41705;SDS011;27385;51.096;17.190;2022-09-16T06:44:49;5.90;;;1.10;;
41705;SDS011;27385;51.096;17.190;2022-09-16T06:47:20;4.20;;;0.90;;
41705;SDS011;27385;51.096;17.190;2022-09-16T06:49:52;14.00;;;1.30;;
41705;SDS011;27385;51.096;17.190;2022-09-16T06:52:24;7.60;;;1.30;;
41705;SDS011;27385;51.096;17.190;2022-09-16T06:54:56;7.10;;;1.00;;
41705;SDS011;27385;51.096;17.190;2022-09-16T06:57:28;4.40;;;0.70;;
41705;SDS011;27385;51.096;17.190;2022-09-16T07:00:00;5.40;;;1.00;;
41705;SDS011;27385;51.096;17.190;2022-09-16T07:02:34;4.80;;;1.00;;
41705;SDS011;27385;51.096;17.190;2022-09-16T07:05:06;7.00;;;1.10;;
41705;SDS011;27385;51.096;17.190;2022-09-16T07:07:39;7.00;;;1.00;;
41705;SDS011;27385;51.096;17.190;2022-09-16T07:10:10;12.00;;;1.20;;
41705;SDS011;27385;51.096;17.190;2022-09-16T07:12:42;5.70;;;1.10;;
41705;SDS011;27385;51.096;17.190;2022-09-16T07:15:13;4.90;;;0.90;;
41705;SDS011;27385;51.096;17.190;2022-09-16T07:17:45;4.50;;;1.00;;
41705;SDS011;27385;51.096;17.190;2022-09-16T07:20:21;3.90;;;0.90;;
41705;SDS011;27385;51.096;17.190;2022-09-16T07:22:52;5.30;;;0.80;;
41705;SDS011;27385;51.096;17.190;2022-09-16T07:25:24;5.50;;;1.20;;
41705;SDS011;27385;51.096;17.190;2022-09-16T07:27:55;3.80;;;0.80;;
41705;SDS011;27385;51.096;17.190;2022-09-16T07:30:26;4.10;;;0.70;;
41705;SDS011;27385;51.096;17.190;2022-09-16T07:33:01;4.60;;;0.50;;
41705;SDS011;27385;51.096;17.190;2022-09-16T07:35:32;6.70;;;0.70;;
41705;SDS011;27385;51.096;17.190;2022-09-16T07:38:06;4.30;;;0.70;;
41705;SDS011;27385;51.096;17.190;2022-09-16T07:40:38;3.90;;;0.60;;
41705;SDS011;27385;51.096;17.190;2022-09-16T07:43:10;7.30;;;0.80;;
41705;SDS011;27385;51.096;17.190;2022-09-16T07:45:41;6.90;;;0.70;;
41705;SDS011;27385;51.096;17.190;2022-09-16T07:48:12;3.00;;;0.70;;
41705;SDS011;27385;51.096;17.190;2022-09-16T07:50:52;3.20;;;0.60;;
41705;SDS011;27385;51.096;17.190;2022-09-16T07:53:25;4.50;;;0.60;;
41705;SDS011;27385;51.096;17.190;2022-09-16T07:56:01;4.60;;;0.60;;
41705;SDS011;27385;51.096;17.190;2022-09-16T07:58:35;4.10;;;0.80;;
41705;SDS011;27385;51.096;17.190;2022-09-16T08:01:07;4.00;;;0.90;;
41705;SDS011;27385;51.096;17.190;2022-09-16T08:03:40;4.80;;;0.70;;
41705;SDS011;27385;51.096;17.190;2022-09-16T08:06:13;4.70;;;1.00;;
41705;SDS011;27385;51.096;17.190;2022-09-16T08:08:45;8.70;;;0.70;;
41705;SDS011;27385;51.096;17.190;2022-09-16T08:11:19;7.40;;;1.20;;
41705;SDS011;27385;51.096;17.190;2022-09-16T08:13:51;5.70;;;0.80;;
41705;SDS011;27385;51.096;17.190;2022-09-16T08:16:23;7.10;;;0.70;;
41705;SDS011;27385;51.096;17.190;2022-09-16T08:18:55;7.20;;;1.10;;
41705;SDS011;27385;51.096;17.190;2022-09-16T08:21:27;3.80;;;0.70;;
41705;SDS011;27385;51.096;17.190;2022-09-16T08:24:00;3.00;;;0.60;;
41705;SDS011;27385;51.096;17.190;2022-09-16T08:26:32;3.70;;;0.50;;
41705;SDS011;27385;51.096;17.190;2022-09-16T08:29:03;3.90;;;0.40;;
41705;SDS011;27385;51.096;17.190;2022-09-16T08:31:35;4.50;;;0.50;;
41705;SDS011;27385;51.096;17.190;2022-09-16T08:34:07;5.20;;;0.50;;
41705;SDS011;27385;51.096;17.190;2022-09-16T08:36:38;1.90;;;0.50;;
41705;SDS011;27385;51.096;17.190;2022-09-16T08:39:10;4.60;;;0.50;;
41705;SDS011;27385;51.096;17.190;2022-09-16T08:41:45;3.10;;;0.50;;
41705;SDS011;27385;51.096;17.190;2022-09-16T08:44:32;2.30;;;0.40;;
41705;SDS011;27385;51.096;17.190;2022-09-16T08:49:45;3.50;;;0.70;;
41705;SDS011;27385;51.096;17.190;2022-09-16T08:52:24;3.80;;;0.60;;
41705;SDS011;27385;51.096;17.190;2022-09-16T08:55:00;4.40;;;0.50;;
41705;SDS011;27385;51.096;17.190;2022-09-16T08:57:44;5.60;;;0.60;;
41705;SDS011;27385;51.096;17.190;2022-09-16T09:00:24;7.00;;;0.50;;
41705;SDS011;27385;51.096;17.190;2022-09-16T09:02:57;4.90;;;0.60;;
41705;SDS011;27385;51.096;17.190;2022-09-16T09:05:38;2.70;;;0.60;;
41705;SDS011;27385;51.096;17.190;2022-09-16T09:08:18;9.30;;;0.50;;
41705;SDS011;27385;51.096;17.190;2022-09-16T09:11:00;8.40;;;0.40;;
41705;SDS011;27385;51.096;17.190;2022-09-16T09:13:49;4.40;;;0.60;;
41705;SDS011;27385;51.096;17.190;2022-09-16T09:16:32;3.20;;;0.40;;
41705;SDS011;27385;51.096;17.190;2022-09-16T09:19:17;3.60;;;0.40;;
41705;SDS011;27385;51.096;17.190;2022-09-16T09:22:01;7.00;;;0.30;;
41705;SDS011;27385;51.096;17.190;2022-09-16T09:24:43;2.30;;;0.40;;
41705;SDS011;27385;51.096;17.190;2022-09-16T09:27:29;5.60;;;0.50;;
41705;SDS011;27385;51.096;17.190;2022-09-16T09:30:11;2.40;;;0.40;;
41705;SDS011;27385;51.096;17.190;2022-09-16T09:32:53;3.50;;;0.50;;
41705;SDS011;27385;51.096;17.190;2022-09-16T09:35:41;4.70;;;0.50;;
41705;SDS011;27385;51.096;17.190;2022-09-16T09:41:23;2.50;;;0.20;;
41705;SDS011;27385;51.096;17.190;2022-09-16T09:44:00;1.90;;;0.30;;
41705;SDS011;27385;51.096;17.190;2022-09-16T09:46:52;1.40;;;0.40;;
41705;SDS011;27385;51.096;17.190;2022-09-16T09:49:26;5.10;;;0.40;;
41705;SDS011;27385;51.096;17.190;2022-09-16T09:52:01;4.30;;;0.30;;
41705;SDS011;27385;51.096;17.190;2022-09-16T09:54:39;4.30;;;0.40;;
41705;SDS011;27385;51.096;17.190;2022-09-16T09:57:20;3.20;;;0.30;;
41705;SDS011;27385;51.096;17.190;2022-09-16T09:59:59;1.40;;;0.20;;
41705;SDS011;27385;51.096;17.190;2022-09-16T10:07:43;4.30;;;0.40;;
41705;SDS011;27385;51.096;17.190;2022-09-16T10:10:16;1.30;;;0.30;;
41705;SDS011;27385;51.096;17.190;2022-09-16T10:12:51;1.90;;;0.40;;
41705;SDS011;27385;51.096;17.190;2022-09-16T10:15:23;1.90;;;0.30;;
41705;SDS011;27385;51.096;17.190;2022-09-16T10:17:56;5.00;;;0.40;;
41705;SDS011;27385;51.096;17.190;2022-09-16T10:20:30;1.80;;;0.20;;
41705;SDS011;27385;51.096;17.190;2022-09-16T10:23:08;6.10;;;0.40;;
41705;SDS011;27385;51.096;17.190;2022-09-16T10:25:42;3.10;;;0.30;;
41705;SDS011;27385;51.096;17.190;2022-09-16T10:28:22;2.90;;;0.30;;
41705;SDS011;27385;51.096;17.190;2022-09-16T10:30:55;4.40;;;0.60;;
41705;SDS011;27385;51.096;17.190;2022-09-16T10:33:29;1.30;;;0.20;;
41705;SDS011;27385;51.096;17.190;2022-09-16T10:36:05;1.60;;;0.20;;
41705;SDS011;27385;51.096;17.190;2022-09-16T10:38:38;4.60;;;0.40;;
41705;SDS011;27385;51.096;17.190;2022-09-16T10:41:15;1.40;;;0.20;;
41705;SDS011;27385;51.096;17.190;2022-09-16T10:43:49;3.80;;;0.50;;
41705;SDS011;27385;51.096;17.190;2022-09-16T10:46:22;2.50;;;0.30;;
41705;SDS011;27385;51.096;17.190;2022-09-16T10:48:55;2.70;;;0.40;;
41705;SDS011;27385;51.096;17.190;2022-09-16T10:51:30;3.70;;;0.30;;
41705;SDS011;27385;51.096;17.190;2022-09-16T10:54:03;2.30;;;0.20;;
41705;SDS011;27385;51.096;17.190;2022-09-16T10:56:46;2.30;;;0.30;;
41705;SDS011;27385;51.096;17.190;2022-09-16T10:59:19;2.90;;;0.20;;
41705;SDS011;27385;51.096;17.190;2022-09-16T11:01:54;2.00;;;0.20;;
41705;SDS011;27385;51.096;17.190;2022-09-16T11:04:42;3.10;;;0.20;;
41705;SDS011;27385;51.096;17.190;2022-09-16T11:07:31;5.30;;;0.40;;
41705;SDS011;27385;51.096;17.190;2022-09-16T11:10:12;4.40;;;0.40;;
41705;SDS011;27385;51.096;17.190;2022-09-16T11:13:12;1.00;;;0.20;;
41705;SDS011;27385;51.096;17.190;2022-09-16T11:15:58;1.40;;;0.30;;
41705;SDS011;27385;51.096;17.190;2022-09-16T11:18:42;5.20;;;0.20;;
41705;SDS011;27385;51.096;17.190;2022-09-16T11:21:26;2.00;;;0.10;;
41705;SDS011;27385;51.096;17.190;2022-09-16T11:24:14;1.20;;;0.10;;
41705;SDS011;27385;51.096;17.190;2022-09-16T11:26:58;1.60;;;0.20;;
41705;SDS011;27385;51.096;17.190;2022-09-16T11:29:48;1.60;;;0.10;;
41705;SDS011;27385;51.096;17.190;2022-09-16T11:32:34;2.60;;;0.20;;
41705;SDS011;27385;51.096;17.190;2022-09-16T11:35:21;5.60;;;0.30;;
41705;SDS011;27385;51.096;17.190;2022-09-16T11:38:12;3.70;;;0.40;;
41705;SDS011;27385;51.096;17.190;2022-09-16T11:40:55;1.80;;;0.20;;
41705;SDS011;27385;51.096;17.190;2022-09-16T11:46:33;12.80;;;0.50;;
41705;SDS011;27385;51.096;17.190;2022-09-16T11:49:18;2.80;;;0.20;;
41705;SDS011;27385;51.096;17.190;2022-09-16T11:52:07;2.70;;;0.50;;
41705;SDS011;27385;51.096;17.190;2022-09-16T11:54:56;3.40;;;0.20;;
41705;SDS011;27385;51.096;17.190;2022-09-16T11:57:44;3.80;;;0.10;;
41705;SDS011;27385;51.096;17.190;2022-09-16T12:00:26;4.40;;;0.30;;
41705;SDS011;27385;51.096;17.190;2022-09-16T12:03:02;4.70;;;0.40;;
41705;SDS011;27385;51.096;17.190;2022-09-16T12:05:40;1.40;;;0.20;;
41705;SDS011;27385;51.096;17.190;2022-09-16T12:08:18;1.50;;;0.20;;
41705;SDS011;27385;51.096;17.190;2022-09-16T12:10:54;2.00;;;0.30;;
41705;SDS011;27385;51.096;17.190;2022-09-16T12:13:29;2.40;;;0.40;;
41705;SDS011;27385;51.096;17.190;2022-09-16T12:16:07;5.10;;;0.20;;
41705;SDS011;27385;51.096;17.190;2022-09-16T12:18:43;1.50;;;0.10;;
41705;SDS011;27385;51.096;17.190;2022-09-16T12:21:19;2.90;;;0.10;;
41705;SDS011;27385;51.096;17.190;2022-09-16T12:23:58;5.00;;;0.20;;
41705;SDS011;27385;51.096;17.190;2022-09-16T12:26:35;3.90;;;0.30;;
41705;SDS011;27385;51.096;17.190;2022-09-16T12:29:10;5.00;;;0.30;;
41705;SDS011;27385;51.096;17.190;2022-09-16T12:31:47;1.20;;;0.40;;
41705;SDS011;27385;51.096;17.190;2022-09-16T12:34:26;4.10;;;0.30;;
41705;SDS011;27385;51.096;17.190;2022-09-16T12:37:02;2.10;;;0.20;;
41705;SDS011;27385;51.096;17.190;2022-09-16T12:39:51;2.30;;;0.20;;
41705;SDS011;27385;51.096;17.190;2022-09-16T12:45:35;2.00;;;0.10;;
41705;SDS011;27385;51.096;17.190;2022-09-16T12:48:34;3.10;;;0.10;;
41705;SDS011;27385;51.096;17.190;2022-09-16T12:51:32;2.60;;;0.20;;
41705;SDS011;27385;51.096;17.190;2022-09-16T12:54:30;2.30;;;0.10;;
41705;SDS011;27385;51.096;17.190;2022-09-16T12:57:18;3.80;;;0.30;;
41705;SDS011;27385;51.096;17.190;2022-09-16T13:00:08;1.30;;;0.10;;
41705;SDS011;27385;51.096;17.190;2022-09-16T13:02:45;4.70;;;0.20;;
41705;SDS011;27385;51.096;17.190;2022-09-16T13:05:21;0.60;;;0.10;;
41705;SDS011;27385;51.096;17.190;2022-09-16T13:07:56;2.80;;;0.10;;
41705;SDS011;27385;51.096;17.190;2022-09-16T13:10:31;0.80;;;0.10;;
41705;SDS011;27385;51.096;17.190;2022-09-16T13:13:05;0.70;;;0.10;;
41705;SDS011;27385;51.096;17.190;2022-09-16T13:15:53;2.30;;;0.20;;
41705;SDS011;27385;51.096;17.190;2022-09-16T13:18:36;1.30;;;0.20;;
41705;SDS011;27385;51.096;17.190;2022-09-16T13:21:17;2.30;;;0.20;;
41705;SDS011;27385;51.096;17.190;2022-09-16T13:24:00;1.40;;;0.10;;
41705;SDS011;27385;51.096;17.190;2022-09-16T13:26:41;4.30;;;0.20;;
41705;SDS011;27385;51.096;17.190;2022-09-16T13:29:29;0.80;;;0.10;;
41705;SDS011;27385;51.096;17.190;2022-09-16T13:32:26;3.60;;;0.30;;
41705;SDS011;27385;51.096;17.190;2022-09-16T13:35:21;1.30;;;0.20;;
41705;SDS011;27385;51.096;17.190;2022-09-16T13:38:21;1.40;;;0.10;;
41705;SDS011;27385;51.096;17.190;2022-09-16T13:41:07;3.00;;;0.20;;
41705;SDS011;27385;51.096;17.190;2022-09-16T13:43:51;3.60;;;0.20;;
41705;SDS011;27385;51.096;17.190;2022-09-16T13:46:30;0.90;;;0.30;;
41705;SDS011;27385;51.096;17.190;2022-09-16T13:56:49;0.90;;;0.10;;
41705;SDS011;27385;51.096;17.190;2022-09-16T13:59:31;2.70;;;0.20;;
41705;SDS011;27385;51.096;17.190;2022-09-16T14:02:14;4.40;;;0.10;;
41705;SDS011;27385;51.096;17.190;2022-09-16T14:05:03;2.60;;;0.20;;
41705;SDS011;27385;51.096;17.190;2022-09-16T14:07:45;1.30;;;0.10;;
41705;SDS011;27385;51.096;17.190;2022-09-16T14:10:24;1.70;;;0.00;;
41705;SDS011;27385;51.096;17.190;2022-09-16T14:13:05;0.70;;;0.10;;
41705;SDS011;27385;51.096;17.190;2022-09-16T14:15:41;0.90;;;0.10;;
41705;SDS011;27385;51.096;17.190;2022-09-16T14:18:17;2.40;;;0.20;;
41705;SDS011;27385;51.096;17.190;2022-09-16T14:20:54;0.80;;;0.10;;
41705;SDS011;27385;51.096;17.190;2022-09-16T14:45:37;1.00;;;0.10;;
41705;SDS011;27385;51.096;17.190;2022-09-16T14:48:13;0.60;;;0.10;;
41705;SDS011;27385;51.096;17.190;2022-09-16T14:50:47;2.10;;;0.20;;
41705;SDS011;27385;51.096;17.190;2022-09-16T14:53:23;0.80;;;0.20;;
41705;SDS011;27385;51.096;17.190;2022-09-16T14:55:56;1.10;;;0.10;;
41705;SDS011;27385;51.096;17.190;2022-09-16T14:58:28;1.30;;;0.10;;
41705;SDS011;27385;51.096;17.190;2022-09-16T15:01:02;0.70;;;0.00;;
41705;SDS011;27385;51.096;17.190;2022-09-16T15:03:38;0.40;;;0.10;;
41705;SDS011;27385;51.096;17.190;2022-09-16T15:06:16;0.50;;;0.10;;
41705;SDS011;27385;51.096;17.190;2022-09-16T15:08:50;1.70;;;0.10;;
41705;SDS011;27385;51.096;17.190;2022-09-16T15:11:27;2.00;;;0.20;;
41705;SDS011;27385;51.096;17.190;2022-09-16T15:14:01;1.60;;;0.10;;
41705;SDS011;27385;51.096;17.190;2022-09-16T15:16:39;2.30;;;0.20;;
41705;SDS011;27385;51.096;17.190;2022-09-16T15:19:15;1.80;;;0.10;;
41705;SDS011;27385;51.096;17.190;2022-09-16T15:21:50;2.20;;;0.20;;
41705;SDS011;27385;51.096;17.190;2022-09-16T15:24:24;1.70;;;0.10;;
41705;SDS011;27385;51.096;17.190;2022-09-16T15:26:58;2.80;;;0.20;;
41705;SDS011;27385;51.096;17.190;2022-09-16T15:29:31;4.20;;;0.30;;
41705;SDS011;27385;51.096;17.190;2022-09-16T15:32:16;9.00;;;0.20;;
41705;SDS011;27385;51.096;17.190;2022-09-16T15:35:00;1.80;;;0.10;;
41705;SDS011;27385;51.096;17.190;2022-09-16T15:37:38;0.90;;;0.10;;
41705;SDS011;27385;51.096;17.190;2022-09-16T15:40:17;0.50;;;0.10;;
41705;SDS011;27385;51.096;17.190;2022-09-16T15:43:01;3.80;;;0.30;;
41705;SDS011;27385;51.096;17.190;2022-09-16T15:45:56;0.40;;;0.10;;
41705;SDS011;27385;51.096;17.190;2022-09-16T15:48:31;2.00;;;0.20;;
41705;SDS011;27385;51.096;17.190;2022-09-16T15:51:06;0.80;;;0.10;;
41705;SDS011;27385;51.096;17.190;2022-09-16T15:53:48;0.60;;;0.10;;
41705;SDS011;27385;51.096;17.190;2022-09-16T15:56:24;2.90;;;0.10;;
41705;SDS011;27385;51.096;17.190;2022-09-16T15:59:00;3.20;;;0.20;;
41705;SDS011;27385;51.096;17.190;2022-09-16T16:01:37;1.60;;;0.10;;
41705;SDS011;27385;51.096;17.190;2022-09-16T16:04:22;3.80;;;0.20;;
41705;SDS011;27385;51.096;17.190;2022-09-16T16:06:58;1.00;;;0.20;;
41705;SDS011;27385;51.096;17.190;2022-09-16T16:12:20;0.80;;;0.20;;
41705;SDS011;27385;51.096;17.190;2022-09-16T16:14:52;2.00;;;0.30;;
41705;SDS011;27385;51.096;17.190;2022-09-16T16:17:24;1.90;;;0.20;;
41705;SDS011;27385;51.096;17.190;2022-09-16T16:19:56;3.20;;;0.40;;